Tri Cities, Washington
Current Conditions -  °F | °C
As of 11:53 PM on Tuesday 21 Oct 2014 (Local Time) from KPSC Reporting Station
Clear Clear  
Wind Chill: 47°   Ceiling: Unl
Heat Index: 47°   Visibility: 10mi
Dew Point: 44°   Wind: 3mph
Humidity: 90%   Direction: 90°E
Pressure: 29.93"   Gusts: NA
Location:  46.2289°N, 119.099°W
Report Text: KPSC 220653Z AUTO 09003KT 10SM CLR 08/07 A2993 RMK AO2 SLP135 T00830067
Loading
Personal Weather Stations






























Interactive Weather Map
Tropical Storm Tracking
New forecast layout! Learn more

10-Day Weather Forecast

Advertisements
Track Severe Weather on mobile